sensor_id;sensor_type;location;lat;lon;timestamp;P1;durP1;ratioP1;P2;durP2;ratioP2
43114;SDS011;28727;50.068;14.452;2023-12-22T00:00:03;9.20;;;2.45;;
43114;SDS011;28727;50.068;14.452;2023-12-22T00:02:36;6.05;;;1.58;;
43114;SDS011;28727;50.068;14.452;2023-12-22T00:05:08;5.85;;;1.50;;
43114;SDS011;28727;50.068;14.452;2023-12-22T00:07:40;9.27;;;1.98;;
43114;SDS011;28727;50.068;14.452;2023-12-22T00:10:12;9.20;;;1.60;;
43114;SDS011;28727;50.068;14.452;2023-12-22T00:12:46;6.43;;;1.65;;
43114;SDS011;28727;50.068;14.452;2023-12-22T00:15:18;12.18;;;1.98;;
43114;SDS011;28727;50.068;14.452;2023-12-22T00:17:50;9.50;;;2.10;;
43114;SDS011;28727;50.068;14.452;2023-12-22T00:20:23;8.45;;;2.10;;
43114;SDS011;28727;50.068;14.452;2023-12-22T00:22:54;10.60;;;2.40;;
43114;SDS011;28727;50.068;14.452;2023-12-22T00:25:26;8.23;;;1.88;;
43114;SDS011;28727;50.068;14.452;2023-12-22T00:27:58;7.13;;;2.22;;
43114;SDS011;28727;50.068;14.452;2023-12-22T00:30:30;8.50;;;1.77;;
43114;SDS011;28727;50.068;14.452;2023-12-22T00:33:02;7.30;;;1.60;;
43114;SDS011;28727;50.068;14.452;2023-12-22T00:35:34;10.73;;;1.75;;
43114;SDS011;28727;50.068;14.452;2023-12-22T00:38:10;5.93;;;1.70;;
43114;SDS011;28727;50.068;14.452;2023-12-22T00:43:13;7.00;;;2.03;;
43114;SDS011;28727;50.068;14.452;2023-12-22T00:45:45;8.68;;;1.60;;
43114;SDS011;28727;50.068;14.452;2023-12-22T00:48:17;15.23;;;2.03;;
43114;SDS011;28727;50.068;14.452;2023-12-22T00:50:49;6.07;;;1.60;;
43114;SDS011;28727;50.068;14.452;2023-12-22T00:53:25;11.00;;;1.73;;
43114;SDS011;28727;50.068;14.452;2023-12-22T00:55:57;10.07;;;1.98;;
43114;SDS011;28727;50.068;14.452;2023-12-22T00:58:29;6.43;;;2.13;;
43114;SDS011;28727;50.068;14.452;2023-12-22T01:01:01;7.50;;;1.90;;
43114;SDS011;28727;50.068;14.452;2023-12-22T01:03:33;9.90;;;2.30;;
43114;SDS011;28727;50.068;14.452;2023-12-22T01:06:06;11.77;;;2.40;;
43114;SDS011;28727;50.068;14.452;2023-12-22T01:08:41;6.53;;;1.63;;
43114;SDS011;28727;50.068;14.452;2023-12-22T01:11:12;12.18;;;2.13;;
43114;SDS011;28727;50.068;14.452;2023-12-22T01:13:45;15.68;;;2.22;;
43114;SDS011;28727;50.068;14.452;2023-12-22T01:16:17;12.77;;;1.90;;
43114;SDS011;28727;50.068;14.452;2023-12-22T01:18:53;11.18;;;2.05;;
43114;SDS011;28727;50.068;14.452;2023-12-22T01:21:25;11.43;;;2.45;;
43114;SDS011;28727;50.068;14.452;2023-12-22T01:23:56;13.27;;;2.40;;
43114;SDS011;28727;50.068;14.452;2023-12-22T01:26:30;9.13;;;2.35;;
43114;SDS011;28727;50.068;14.452;2023-12-22T01:29:04;11.93;;;2.47;;
43114;SDS011;28727;50.068;14.452;2023-12-22T01:31:36;15.52;;;2.95;;
43114;SDS011;28727;50.068;14.452;2023-12-22T01:34:08;11.18;;;2.45;;
43114;SDS011;28727;50.068;14.452;2023-12-22T01:36:41;13.90;;;2.03;;
43114;SDS011;28727;50.068;14.452;2023-12-22T01:39:13;8.45;;;2.42;;
43114;SDS011;28727;50.068;14.452;2023-12-22T01:41:45;9.88;;;1.92;;
43114;SDS011;28727;50.068;14.452;2023-12-22T01:44:17;9.60;;;2.05;;
43114;SDS011;28727;50.068;14.452;2023-12-22T01:46:49;16.30;;;2.10;;
43114;SDS011;28727;50.068;14.452;2023-12-22T01:49:22;11.27;;;2.72;;
43114;SDS011;28727;50.068;14.452;2023-12-22T01:51:55;14.10;;;2.30;;
43114;SDS011;28727;50.068;14.452;2023-12-22T01:54:30;9.70;;;2.08;;
43114;SDS011;28727;50.068;14.452;2023-12-22T01:57:09;10.18;;;2.10;;
43114;SDS011;28727;50.068;14.452;2023-12-22T01:59:50;8.80;;;1.85;;
43114;SDS011;28727;50.068;14.452;2023-12-22T02:02:22;13.85;;;2.15;;
43114;SDS011;28727;50.068;14.452;2023-12-22T02:04:56;9.37;;;1.70;;
43114;SDS011;28727;50.068;14.452;2023-12-22T02:07:32;10.38;;;2.60;;
43114;SDS011;28727;50.068;14.452;2023-12-22T02:10:08;9.40;;;1.70;;
43114;SDS011;28727;50.068;14.452;2023-12-22T02:12:40;13.05;;;1.92;;
43114;SDS011;28727;50.068;14.452;2023-12-22T02:15:13;8.85;;;1.63;;
43114;SDS011;28727;50.068;14.452;2023-12-22T02:20:43;9.32;;;2.10;;
43114;SDS011;28727;50.068;14.452;2023-12-22T02:23:15;13.65;;;2.28;;
43114;SDS011;28727;50.068;14.452;2023-12-22T02:28:27;12.57;;;2.03;;
43114;SDS011;28727;50.068;14.452;2023-12-22T02:31:02;10.50;;;1.88;;
43114;SDS011;28727;50.068;14.452;2023-12-22T02:33:37;13.85;;;2.47;;
43114;SDS011;28727;50.068;14.452;2023-12-22T02:36:12;9.35;;;1.80;;
43114;SDS011;28727;50.068;14.452;2023-12-22T02:38:52;14.02;;;2.47;;
43114;SDS011;28727;50.068;14.452;2023-12-22T02:41:29;7.60;;;1.60;;
43114;SDS011;28727;50.068;14.452;2023-12-22T02:44:02;8.45;;;2.20;;
43114;SDS011;28727;50.068;14.452;2023-12-22T02:46:34;13.00;;;2.30;;
43114;SDS011;28727;50.068;14.452;2023-12-22T02:49:06;15.35;;;2.85;;
43114;SDS011;28727;50.068;14.452;2023-12-22T02:51:38;12.85;;;3.20;;
43114;SDS011;28727;50.068;14.452;2023-12-22T02:54:10;15.07;;;2.65;;
43114;SDS011;28727;50.068;14.452;2023-12-22T02:56:47;9.80;;;2.45;;
43114;SDS011;28727;50.068;14.452;2023-12-22T02:59:28;10.00;;;2.85;;
43114;SDS011;28727;50.068;14.452;2023-12-22T03:02:00;12.13;;;1.90;;
43114;SDS011;28727;50.068;14.452;2023-12-22T03:04:37;14.60;;;3.30;;
43114;SDS011;28727;50.068;14.452;2023-12-22T03:07:09;13.88;;;2.20;;
43114;SDS011;28727;50.068;14.452;2023-12-22T03:09:44;9.60;;;2.17;;
43114;SDS011;28727;50.068;14.452;2023-12-22T03:12:26;13.18;;;2.13;;
43114;SDS011;28727;50.068;14.452;2023-12-22T03:17:32;13.35;;;2.40;;
43114;SDS011;28727;50.068;14.452;2023-12-22T03:22:36;9.32;;;2.10;;
43114;SDS011;28727;50.068;14.452;2023-12-22T03:25:08;15.90;;;2.40;;
43114;SDS011;28727;50.068;14.452;2023-12-22T03:27:40;12.43;;;3.17;;
43114;SDS011;28727;50.068;14.452;2023-12-22T03:30:12;11.15;;;2.40;;
43114;SDS011;28727;50.068;14.452;2023-12-22T03:32:45;10.52;;;2.20;;
43114;SDS011;28727;50.068;14.452;2023-12-22T03:35:23;10.30;;;2.13;;
43114;SDS011;28727;50.068;14.452;2023-12-22T03:37:56;14.05;;;2.70;;
43114;SDS011;28727;50.068;14.452;2023-12-22T03:40:30;12.35;;;2.50;;
43114;SDS011;28727;50.068;14.452;2023-12-22T03:43:01;13.10;;;3.03;;
43114;SDS011;28727;50.068;14.452;2023-12-22T03:45:33;9.77;;;1.77;;
43114;SDS011;28727;50.068;14.452;2023-12-22T03:48:10;14.45;;;3.30;;
43114;SDS011;28727;50.068;14.452;2023-12-22T03:50:42;13.70;;;2.03;;
43114;SDS011;28727;50.068;14.452;2023-12-22T03:53:14;10.50;;;2.85;;
43114;SDS011;28727;50.068;14.452;2023-12-22T03:55:45;11.93;;;2.58;;
43114;SDS011;28727;50.068;14.452;2023-12-22T03:58:17;13.80;;;2.63;;
43114;SDS011;28727;50.068;14.452;2023-12-22T04:00:49;14.75;;;2.40;;
43114;SDS011;28727;50.068;14.452;2023-12-22T04:03:23;13.25;;;2.33;;
43114;SDS011;28727;50.068;14.452;2023-12-22T04:05:55;14.63;;;2.45;;
43114;SDS011;28727;50.068;14.452;2023-12-22T04:08:26;13.20;;;2.22;;
43114;SDS011;28727;50.068;14.452;2023-12-22T04:10:58;13.70;;;3.17;;
43114;SDS011;28727;50.068;14.452;2023-12-22T04:13:30;13.00;;;2.58;;
43114;SDS011;28727;50.068;14.452;2023-12-22T04:16:02;12.32;;;1.90;;
43114;SDS011;28727;50.068;14.452;2023-12-22T04:18:39;14.05;;;2.17;;
43114;SDS011;28727;50.068;14.452;2023-12-22T04:21:12;17.00;;;2.55;;
43114;SDS011;28727;50.068;14.452;2023-12-22T04:23:45;14.20;;;2.38;;
43114;SDS011;28727;50.068;14.452;2023-12-22T04:26:19;14.18;;;2.72;;
43114;SDS011;28727;50.068;14.452;2023-12-22T04:28:53;15.40;;;2.03;;
43114;SDS011;28727;50.068;14.452;2023-12-22T04:31:26;8.68;;;2.38;;
43114;SDS011;28727;50.068;14.452;2023-12-22T04:33:58;12.93;;;2.03;;
43114;SDS011;28727;50.068;14.452;2023-12-22T04:36:34;12.85;;;2.28;;
43114;SDS011;28727;50.068;14.452;2023-12-22T04:39:07;12.10;;;2.13;;
43114;SDS011;28727;50.068;14.452;2023-12-22T04:41:44;14.52;;;2.30;;
43114;SDS011;28727;50.068;14.452;2023-12-22T04:44:18;14.98;;;2.70;;
43114;SDS011;28727;50.068;14.452;2023-12-22T04:46:51;12.88;;;1.95;;
43114;SDS011;28727;50.068;14.452;2023-12-22T04:49:23;11.85;;;2.85;;
43114;SDS011;28727;50.068;14.452;2023-12-22T04:51:55;13.32;;;3.78;;
43114;SDS011;28727;50.068;14.452;2023-12-22T04:54:32;11.00;;;1.85;;
43114;SDS011;28727;50.068;14.452;2023-12-22T04:57:04;9.98;;;1.98;;
43114;SDS011;28727;50.068;14.452;2023-12-22T04:59:36;9.55;;;2.53;;
43114;SDS011;28727;50.068;14.452;2023-12-22T05:02:08;9.75;;;2.10;;
43114;SDS011;28727;50.068;14.452;2023-12-22T05:04:39;11.45;;;2.00;;
43114;SDS011;28727;50.068;14.452;2023-12-22T05:07:11;11.98;;;2.00;;
43114;SDS011;28727;50.068;14.452;2023-12-22T05:09:43;12.40;;;2.00;;
43114;SDS011;28727;50.068;14.452;2023-12-22T05:12:17;10.30;;;1.43;;
43114;SDS011;28727;50.068;14.452;2023-12-22T05:14:49;9.02;;;2.45;;
43114;SDS011;28727;50.068;14.452;2023-12-22T05:17:20;11.88;;;2.17;;
43114;SDS011;28727;50.068;14.452;2023-12-22T05:19:53;9.80;;;2.70;;
43114;SDS011;28727;50.068;14.452;2023-12-22T05:22:27;11.30;;;2.45;;
43114;SDS011;28727;50.068;14.452;2023-12-22T05:25:03;12.95;;;2.05;;
43114;SDS011;28727;50.068;14.452;2023-12-22T05:27:39;10.77;;;1.63;;
43114;SDS011;28727;50.068;14.452;2023-12-22T05:30:14;14.25;;;2.03;;
43114;SDS011;28727;50.068;14.452;2023-12-22T05:32:47;12.18;;;1.90;;
43114;SDS011;28727;50.068;14.452;2023-12-22T05:35:18;9.75;;;1.60;;
43114;SDS011;28727;50.068;14.452;2023-12-22T05:37:51;8.23;;;1.92;;
43114;SDS011;28727;50.068;14.452;2023-12-22T05:40:24;12.70;;;2.08;;
43114;SDS011;28727;50.068;14.452;2023-12-22T05:42:58;9.68;;;1.67;;
43114;SDS011;28727;50.068;14.452;2023-12-22T05:45:30;13.02;;;2.08;;
43114;SDS011;28727;50.068;14.452;2023-12-22T05:48:04;7.78;;;1.63;;
43114;SDS011;28727;50.068;14.452;2023-12-22T05:50:38;9.23;;;2.10;;
43114;SDS011;28727;50.068;14.452;2023-12-22T05:55:45;8.43;;;1.95;;
43114;SDS011;28727;50.068;14.452;2023-12-22T05:58:17;11.40;;;3.50;;
43114;SDS011;28727;50.068;14.452;2023-12-22T06:00:56;10.90;;;2.13;;
43114;SDS011;28727;50.068;14.452;2023-12-22T06:05:59;5.95;;;1.80;;
43114;SDS011;28727;50.068;14.452;2023-12-22T06:08:36;10.75;;;2.30;;
43114;SDS011;28727;50.068;14.452;2023-12-22T06:11:12;9.23;;;1.88;;
43114;SDS011;28727;50.068;14.452;2023-12-22T06:13:45;7.03;;;3.15;;
43114;SDS011;28727;50.068;14.452;2023-12-22T06:16:17;5.95;;;1.60;;
43114;SDS011;28727;50.068;14.452;2023-12-22T06:18:50;5.60;;;2.80;;
43114;SDS011;28727;50.068;14.452;2023-12-22T06:21:22;8.27;;;2.60;;
43114;SDS011;28727;50.068;14.452;2023-12-22T06:23:57;6.75;;;1.45;;
43114;SDS011;28727;50.068;14.452;2023-12-22T06:26:29;8.43;;;1.35;;
43114;SDS011;28727;50.068;14.452;2023-12-22T06:29:01;7.55;;;1.45;;
43114;SDS011;28727;50.068;14.452;2023-12-22T06:31:33;6.85;;;1.70;;
43114;SDS011;28727;50.068;14.452;2023-12-22T06:34:05;6.00;;;1.48;;
43114;SDS011;28727;50.068;14.452;2023-12-22T06:36:39;6.43;;;1.53;;
43114;SDS011;28727;50.068;14.452;2023-12-22T06:39:10;4.70;;;1.15;;
43114;SDS011;28727;50.068;14.452;2023-12-22T06:41:42;3.75;;;1.20;;
43114;SDS011;28727;50.068;14.452;2023-12-22T06:44:14;4.97;;;1.23;;
43114;SDS011;28727;50.068;14.452;2023-12-22T06:46:47;2.72;;;1.20;;
43114;SDS011;28727;50.068;14.452;2023-12-22T06:49:19;8.38;;;1.50;;
43114;SDS011;28727;50.068;14.452;2023-12-22T06:51:51;5.07;;;1.48;;
43114;SDS011;28727;50.068;14.452;2023-12-22T06:54:25;5.70;;;1.40;;
43114;SDS011;28727;50.068;14.452;2023-12-22T06:56:57;6.65;;;1.73;;
43114;SDS011;28727;50.068;14.452;2023-12-22T06:59:29;8.05;;;1.63;;
43114;SDS011;28727;50.068;14.452;2023-12-22T07:02:03;7.10;;;1.73;;
43114;SDS011;28727;50.068;14.452;2023-12-22T07:05:03;7.50;;;1.38;;
43114;SDS011;28727;50.068;14.452;2023-12-22T07:07:56;3.35;;;1.20;;
43114;SDS011;28727;50.068;14.452;2023-12-22T07:10:29;4.53;;;1.20;;
43114;SDS011;28727;50.068;14.452;2023-12-22T07:13:01;4.03;;;1.45;;
43114;SDS011;28727;50.068;14.452;2023-12-22T07:15:33;5.90;;;1.58;;
43114;SDS011;28727;50.068;14.452;2023-12-22T07:18:08;5.07;;;1.30;;
43114;SDS011;28727;50.068;14.452;2023-12-22T07:20:43;7.35;;;1.52;;
43114;SDS011;28727;50.068;14.452;2023-12-22T07:23:15;3.83;;;1.38;;
43114;SDS011;28727;50.068;14.452;2023-12-22T07:25:46;4.05;;;1.27;;
43114;SDS011;28727;50.068;14.452;2023-12-22T07:28:19;5.25;;;1.55;;
43114;SDS011;28727;50.068;14.452;2023-12-22T07:30:51;5.53;;;1.10;;
43114;SDS011;28727;50.068;14.452;2023-12-22T07:33:25;7.32;;;1.40;;
43114;SDS011;28727;50.068;14.452;2023-12-22T07:35:58;4.57;;;1.13;;
43114;SDS011;28727;50.068;14.452;2023-12-22T07:38:30;3.97;;;1.40;;
43114;SDS011;28727;50.068;14.452;2023-12-22T07:41:02;4.03;;;1.35;;
43114;SDS011;28727;50.068;14.452;2023-12-22T07:43:34;6.72;;;1.80;;
43114;SDS011;28727;50.068;14.452;2023-12-22T07:46:06;5.60;;;1.30;;
43114;SDS011;28727;50.068;14.452;2023-12-22T07:48:41;4.55;;;1.20;;
43114;SDS011;28727;50.068;14.452;2023-12-22T07:51:13;7.20;;;1.50;;
43114;SDS011;28727;50.068;14.452;2023-12-22T07:53:45;4.78;;;1.95;;
43114;SDS011;28727;50.068;14.452;2023-12-22T07:56:18;6.28;;;2.00;;
43114;SDS011;28727;50.068;14.452;2023-12-22T07:58:50;4.85;;;1.52;;
43114;SDS011;28727;50.068;14.452;2023-12-22T08:01:21;4.72;;;1.30;;
43114;SDS011;28727;50.068;14.452;2023-12-22T08:03:54;5.80;;;1.38;;
43114;SDS011;28727;50.068;14.452;2023-12-22T08:06:27;4.60;;;1.20;;
43114;SDS011;28727;50.068;14.452;2023-12-22T08:11:34;5.10;;;1.45;;
43114;SDS011;28727;50.068;14.452;2023-12-22T08:14:05;5.53;;;1.33;;
43114;SDS011;28727;50.068;14.452;2023-12-22T08:16:37;6.10;;;1.23;;
43114;SDS011;28727;50.068;14.452;2023-12-22T08:19:12;6.70;;;1.42;;
43114;SDS011;28727;50.068;14.452;2023-12-22T08:21:44;5.15;;;1.30;;
43114;SDS011;28727;50.068;14.452;2023-12-22T08:24:20;6.07;;;1.27;;
43114;SDS011;28727;50.068;14.452;2023-12-22T08:29:26;6.63;;;1.33;;
43114;SDS011;28727;50.068;14.452;2023-12-22T08:31:58;3.22;;;1.02;;
43114;SDS011;28727;50.068;14.452;2023-12-22T08:34:33;6.18;;;1.17;;
43114;SDS011;28727;50.068;14.452;2023-12-22T08:37:04;4.97;;;1.30;;
43114;SDS011;28727;50.068;14.452;2023-12-22T08:39:37;5.95;;;1.17;;
43114;SDS011;28727;50.068;14.452;2023-12-22T08:42:09;3.40;;;1.40;;
43114;SDS011;28727;50.068;14.452;2023-12-22T08:44:41;4.80;;;1.42;;
43114;SDS011;28727;50.068;14.452;2023-12-22T08:47:16;7.55;;;1.27;;
43114;SDS011;28727;50.068;14.452;2023-12-22T08:49:48;5.88;;;1.90;;
43114;SDS011;28727;50.068;14.452;2023-12-22T08:52:20;5.85;;;1.55;;
43114;SDS011;28727;50.068;14.452;2023-12-22T08:54:57;5.80;;;1.60;;
43114;SDS011;28727;50.068;14.452;2023-12-22T08:57:29;8.98;;;1.90;;
43114;SDS011;28727;50.068;14.452;2023-12-22T09:00:00;6.07;;;1.30;;
43114;SDS011;28727;50.068;14.452;2023-12-22T09:02:37;6.18;;;1.40;;
43114;SDS011;28727;50.068;14.452;2023-12-22T09:05:11;5.82;;;1.60;;
43114;SDS011;28727;50.068;14.452;2023-12-22T09:07:43;5.22;;;1.17;;
43114;SDS011;28727;50.068;14.452;2023-12-22T09:10:19;3.85;;;1.05;;
43114;SDS011;28727;50.068;14.452;2023-12-22T09:12:51;6.20;;;2.17;;
43114;SDS011;28727;50.068;14.452;2023-12-22T09:15:25;4.85;;;1.50;;
43114;SDS011;28727;50.068;14.452;2023-12-22T09:18:00;3.65;;;1.45;;
43114;SDS011;28727;50.068;14.452;2023-12-22T09:20:32;6.18;;;1.50;;
43114;SDS011;28727;50.068;14.452;2023-12-22T09:23:04;2.60;;;1.52;;
43114;SDS011;28727;50.068;14.452;2023-12-22T09:25:39;4.50;;;1.50;;
43114;SDS011;28727;50.068;14.452;2023-12-22T09:28:11;4.45;;;1.40;;
43114;SDS011;28727;50.068;14.452;2023-12-22T09:30:43;6.63;;;2.05;;
43114;SDS011;28727;50.068;14.452;2023-12-22T09:33:15;3.55;;;1.17;;
43114;SDS011;28727;50.068;14.452;2023-12-22T09:35:58;3.58;;;1.77;;
43114;SDS011;28727;50.068;14.452;2023-12-22T09:38:31;4.63;;;2.75;;
43114;SDS011;28727;50.068;14.452;2023-12-22T09:41:03;3.28;;;1.50;;
43114;SDS011;28727;50.068;14.452;2023-12-22T09:43:38;4.25;;;1.20;;
43114;SDS011;28727;50.068;14.452;2023-12-22T09:46:16;2.90;;;1.20;;
43114;SDS011;28727;50.068;14.452;2023-12-22T09:48:52;3.92;;;1.30;;
43114;SDS011;28727;50.068;14.452;2023-12-22T09:51:25;2.85;;;1.80;;
43114;SDS011;28727;50.068;14.452;2023-12-22T09:54:03;2.83;;;1.23;;
43114;SDS011;28727;50.068;14.452;2023-12-22T09:56:38;5.50;;;1.40;;
43114;SDS011;28727;50.068;14.452;2023-12-22T09:59:14;4.93;;;1.38;;
43114;SDS011;28727;50.068;14.452;2023-12-22T10:01:47;5.47;;;1.40;;
43114;SDS011;28727;50.068;14.452;2023-12-22T10:04:22;6.55;;;1.25;;
43114;SDS011;28727;50.068;14.452;2023-12-22T10:06:58;1.65;;;0.80;;
43114;SDS011;28727;50.068;14.452;2023-12-22T10:09:33;3.40;;;0.80;;
43114;SDS011;28727;50.068;14.452;2023-12-22T10:12:06;2.72;;;0.60;;
43114;SDS011;28727;50.068;14.452;2023-12-22T10:14:42;1.75;;;0.50;;
43114;SDS011;28727;50.068;14.452;2023-12-22T10:17:15;1.42;;;0.40;;
43114;SDS011;28727;50.068;14.452;2023-12-22T10:19:49;1.73;;;0.60;;
43114;SDS011;28727;50.068;14.452;2023-12-22T10:22:23;1.33;;;0.60;;
43114;SDS011;28727;50.068;14.452;2023-12-22T10:24:55;1.10;;;0.70;;
43114;SDS011;28727;50.068;14.452;2023-12-22T10:27:27;4.20;;;0.57;;
43114;SDS011;28727;50.068;14.452;2023-12-22T10:30:03;1.65;;;0.50;;
43114;SDS011;28727;50.068;14.452;2023-12-22T10:32:39;1.90;;;0.50;;
43114;SDS011;28727;50.068;14.452;2023-12-22T10:35:12;2.05;;;0.60;;
43114;SDS011;28727;50.068;14.452;2023-12-22T10:37:51;5.50;;;0.90;;
43114;SDS011;28727;50.068;14.452;2023-12-22T10:40:28;2.75;;;0.77;;
43114;SDS011;28727;50.068;14.452;2023-12-22T10:43:01;2.50;;;0.88;;
43114;SDS011;28727;50.068;14.452;2023-12-22T10:45:33;3.10;;;1.02;;
43114;SDS011;28727;50.068;14.452;2023-12-22T10:48:05;2.05;;;0.68;;
43114;SDS011;28727;50.068;14.452;2023-12-22T10:50:39;0.90;;;0.60;;
43114;SDS011;28727;50.068;14.452;2023-12-22T10:53:11;2.67;;;1.23;;
43114;SDS011;28727;50.068;14.452;2023-12-22T10:55:48;1.67;;;0.65;;
43114;SDS011;28727;50.068;14.452;2023-12-22T10:58:22;2.23;;;0.80;;
43114;SDS011;28727;50.068;14.452;2023-12-22T11:00:54;3.97;;;1.08;;
43114;SDS011;28727;50.068;14.452;2023-12-22T11:03:25;1.50;;;0.60;;
43114;SDS011;28727;50.068;14.452;2023-12-22T11:06:01;1.92;;;0.68;;
43114;SDS011;28727;50.068;14.452;2023-12-22T11:08:35;1.35;;;0.70;;
43114;SDS011;28727;50.068;14.452;2023-12-22T11:11:16;1.48;;;0.70;;
43114;SDS011;28727;50.068;14.452;2023-12-22T11:13:52;1.77;;;0.80;;
43114;SDS011;28727;50.068;14.452;2023-12-22T11:16:28;2.58;;;0.90;;
43114;SDS011;28727;50.068;14.452;2023-12-22T11:19:09;1.58;;;0.90;;
43114;SDS011;28727;50.068;14.452;2023-12-22T11:21:52;1.77;;;0.60;;
43114;SDS011;28727;50.068;14.452;2023-12-22T11:24:26;2.38;;;0.90;;
43114;SDS011;28727;50.068;14.452;2023-12-22T11:26:59;2.78;;;0.90;;
43114;SDS011;28727;50.068;14.452;2023-12-22T11:29:34;2.17;;;0.75;;
43114;SDS011;28727;50.068;14.452;2023-12-22T11:32:09;1.02;;;0.63;;
43114;SDS011;28727;50.068;14.452;2023-12-22T11:34:46;1.77;;;0.88;;
43114;SDS011;28727;50.068;14.452;2023-12-22T11:37:19;1.83;;;0.80;;
43114;SDS011;28727;50.068;14.452;2023-12-22T11:39:52;1.80;;;1.00;;
43114;SDS011;28727;50.068;14.452;2023-12-22T11:42:29;2.83;;;1.20;;
43114;SDS011;28727;50.068;14.452;2023-12-22T11:45:04;9.65;;;2.38;;
43114;SDS011;28727;50.068;14.452;2023-12-22T11:47:36;2.00;;;1.10;;
43114;SDS011;28727;50.068;14.452;2023-12-22T11:50:09;1.33;;;0.80;;
43114;SDS011;28727;50.068;14.452;2023-12-22T11:52:42;6.45;;;3.05;;
43114;SDS011;28727;50.068;14.452;2023-12-22T11:55:14;2.42;;;1.38;;
43114;SDS011;28727;50.068;14.452;2023-12-22T11:57:45;3.97;;;1.58;;
43114;SDS011;28727;50.068;14.452;2023-12-22T12:02:56;3.20;;;1.40;;
43114;SDS011;28727;50.068;14.452;2023-12-22T12:05:28;1.83;;;1.38;;
43114;SDS011;28727;50.068;14.452;2023-12-22T12:08:06;2.80;;;1.35;;
43114;SDS011;28727;50.068;14.452;2023-12-22T12:10:51;9.82;;;2.50;;
43114;SDS011;28727;50.068;14.452;2023-12-22T12:13:26;4.40;;;1.55;;
43114;SDS011;28727;50.068;14.452;2023-12-22T12:15:59;3.88;;;1.75;;
43114;SDS011;28727;50.068;14.452;2023-12-22T12:18:32;4.60;;;1.55;;
43114;SDS011;28727;50.068;14.452;2023-12-22T12:21:09;7.30;;;1.80;;
43114;SDS011;28727;50.068;14.452;2023-12-22T12:23:46;4.93;;;1.63;;
43114;SDS011;28727;50.068;14.452;2023-12-22T12:26:21;5.65;;;1.60;;
43114;SDS011;28727;50.068;14.452;2023-12-22T12:28:54;3.90;;;1.55;;
43114;SDS011;28727;50.068;14.452;2023-12-22T12:31:36;5.55;;;1.83;;
43114;SDS011;28727;50.068;14.452;2023-12-22T12:34:15;6.90;;;3.33;;
43114;SDS011;28727;50.068;14.452;2023-12-22T12:36:52;7.57;;;2.22;;
43114;SDS011;28727;50.068;14.452;2023-12-22T12:39:25;9.75;;;2.15;;
43114;SDS011;28727;50.068;14.452;2023-12-22T12:42:02;7.25;;;2.03;;
43114;SDS011;28727;50.068;14.452;2023-12-22T12:44:39;8.23;;;2.10;;
43114;SDS011;28727;50.068;14.452;2023-12-22T12:47:14;6.22;;;2.17;;
43114;SDS011;28727;50.068;14.452;2023-12-22T12:49:59;8.95;;;2.40;;
43114;SDS011;28727;50.068;14.452;2023-12-22T12:52:32;9.55;;;1.95;;
43114;SDS011;28727;50.068;14.452;2023-12-22T12:55:08;5.40;;;1.73;;
43114;SDS011;28727;50.068;14.452;2023-12-22T12:57:43;7.35;;;1.70;;
43114;SDS011;28727;50.068;14.452;2023-12-22T13:00:16;6.60;;;1.98;;
43114;SDS011;28727;50.068;14.452;2023-12-22T13:02:55;10.48;;;1.92;;
43114;SDS011;28727;50.068;14.452;2023-12-22T13:05:28;6.82;;;1.33;;
43114;SDS011;28727;50.068;14.452;2023-12-22T13:08:06;5.57;;;1.40;;
43114;SDS011;28727;50.068;14.452;2023-12-22T13:10:40;7.45;;;1.40;;
43114;SDS011;28727;50.068;14.452;2023-12-22T13:13:13;5.35;;;1.48;;
43114;SDS011;28727;50.068;14.452;2023-12-22T13:15:48;4.93;;;1.45;;
43114;SDS011;28727;50.068;14.452;2023-12-22T13:18:21;7.88;;;2.63;;
43114;SDS011;28727;50.068;14.452;2023-12-22T13:20:53;4.95;;;1.10;;
43114;SDS011;28727;50.068;14.452;2023-12-22T13:23:25;5.68;;;1.65;;
43114;SDS011;28727;50.068;14.452;2023-12-22T13:25:57;5.05;;;1.30;;
43114;SDS011;28727;50.068;14.452;2023-12-22T13:28:29;5.85;;;1.40;;
43114;SDS011;28727;50.068;14.452;2023-12-22T13:31:09;5.18;;;1.27;;
43114;SDS011;28727;50.068;14.452;2023-12-22T13:33:45;4.38;;;1.00;;
43114;SDS011;28727;50.068;14.452;2023-12-22T13:36:17;6.63;;;1.40;;
43114;SDS011;28727;50.068;14.452;2023-12-22T13:38:53;5.13;;;1.38;;
43114;SDS011;28727;50.068;14.452;2023-12-22T13:41:25;4.18;;;1.55;;
43114;SDS011;28727;50.068;14.452;2023-12-22T13:44:04;7.47;;;1.33;;
43114;SDS011;28727;50.068;14.452;2023-12-22T13:46:37;4.15;;;1.05;;
43114;SDS011;28727;50.068;14.452;2023-12-22T13:49:12;4.10;;;1.30;;
43114;SDS011;28727;50.068;14.452;2023-12-22T13:51:44;5.95;;;1.52;;
43114;SDS011;28727;50.068;14.452;2023-12-22T13:54:19;7.80;;;1.50;;
43114;SDS011;28727;50.068;14.452;2023-12-22T13:56:51;4.70;;;1.33;;
43114;SDS011;28727;50.068;14.452;2023-12-22T13:59:33;4.60;;;1.52;;
43114;SDS011;28727;50.068;14.452;2023-12-22T14:02:05;4.47;;;1.88;;
43114;SDS011;28727;50.068;14.452;2023-12-22T14:04:37;5.10;;;1.38;;
43114;SDS011;28727;50.068;14.452;2023-12-22T14:07:09;5.40;;;1.50;;
43114;SDS011;28727;50.068;14.452;2023-12-22T14:09:45;5.05;;;1.70;;
43114;SDS011;28727;50.068;14.452;2023-12-22T14:12:23;7.05;;;1.40;;
43114;SDS011;28727;50.068;14.452;2023-12-22T14:15:03;7.55;;;2.00;;
43114;SDS011;28727;50.068;14.452;2023-12-22T14:17:41;6.28;;;1.55;;
43114;SDS011;28727;50.068;14.452;2023-12-22T14:20:17;3.65;;;1.45;;
43114;SDS011;28727;50.068;14.452;2023-12-22T14:22:50;3.20;;;1.27;;
43114;SDS011;28727;50.068;14.452;2023-12-22T14:25:25;6.85;;;1.42;;
43114;SDS011;28727;50.068;14.452;2023-12-22T14:27:59;5.05;;;1.58;;
43114;SDS011;28727;50.068;14.452;2023-12-22T14:30:33;4.57;;;1.30;;
43114;SDS011;28727;50.068;14.452;2023-12-22T14:33:05;4.03;;;1.45;;
43114;SDS011;28727;50.068;14.452;2023-12-22T14:35:38;3.47;;;1.40;;
43114;SDS011;28727;50.068;14.452;2023-12-22T14:38:19;5.38;;;1.70;;
43114;SDS011;28727;50.068;14.452;2023-12-22T14:40:51;4.97;;;1.23;;
43114;SDS011;28727;50.068;14.452;2023-12-22T14:43:24;4.78;;;1.25;;
43114;SDS011;28727;50.068;14.452;2023-12-22T14:45:57;5.57;;;1.63;;
43114;SDS011;28727;50.068;14.452;2023-12-22T14:48:29;3.80;;;1.30;;
43114;SDS011;28727;50.068;14.452;2023-12-22T14:51:01;3.50;;;1.23;;
43114;SDS011;28727;50.068;14.452;2023-12-22T14:53:34;5.18;;;1.25;;
43114;SDS011;28727;50.068;14.452;2023-12-22T14:56:06;4.55;;;1.42;;
43114;SDS011;28727;50.068;14.452;2023-12-22T14:58:38;3.63;;;1.50;;
43114;SDS011;28727;50.068;14.452;2023-12-22T15:01:13;3.47;;;1.15;;
43114;SDS011;28727;50.068;14.452;2023-12-22T15:03:46;4.93;;;1.40;;
43114;SDS011;28727;50.068;14.452;2023-12-22T15:06:20;6.75;;;1.48;;
43114;SDS011;28727;50.068;14.452;2023-12-22T15:08:55;3.35;;;1.10;;
43114;SDS011;28727;50.068;14.452;2023-12-22T15:11:27;3.90;;;1.58;;
43114;SDS011;28727;50.068;14.452;2023-12-22T15:13:58;2.22;;;1.10;;
43114;SDS011;28727;50.068;14.452;2023-12-22T15:16:31;2.15;;;0.95;;
43114;SDS011;28727;50.068;14.452;2023-12-22T15:19:03;4.65;;;1.48;;
43114;SDS011;28727;50.068;14.452;2023-12-22T15:21:35;3.97;;;1.30;;
43114;SDS011;28727;50.068;14.452;2023-12-22T15:24:09;2.75;;;1.17;;
43114;SDS011;28727;50.068;14.452;2023-12-22T15:26:42;2.72;;;1.05;;
43114;SDS011;28727;50.068;14.452;2023-12-22T15:29:14;2.65;;;1.10;;
43114;SDS011;28727;50.068;14.452;2023-12-22T15:31:46;2.28;;;1.00;;
43114;SDS011;28727;50.068;14.452;2023-12-22T15:34:24;3.78;;;1.10;;